createdAt,value
2018-12-17T00:00:16.517Z,188.6
2018-12-17T00:01:17.231Z,205.6
2018-12-17T00:02:18.225Z,196.5
2018-12-17T00:03:18.938Z,196.2
2018-12-17T00:04:19.797Z,217.6
2018-12-17T00:05:20.510Z,222.0
2018-12-17T00:06:21.216Z,215.6
2018-12-17T00:07:21.934Z,237.8
2018-12-17T00:08:22.646Z,227.2
2018-12-17T00:09:23.410Z,239.0
2018-12-17T00:10:24.118Z,236.6
2018-12-17T00:11:24.832Z,213.2
2018-12-17T00:12:25.548Z,249.6
2018-12-17T00:13:26.260Z,228.1
2018-12-17T00:14:26.973Z,203.5
2018-12-17T00:15:27.935Z,227.0
2018-12-17T00:16:28.646Z,228.6
2018-12-17T00:17:29.355Z,229.2
2018-12-17T00:18:30.074Z,232.2
2018-12-17T00:19:30.777Z,227.9
2018-12-17T00:20:31.591Z,234.7
2018-12-17T00:21:32.302Z,267.9
2018-12-17T00:22:33.258Z,282.2
2018-12-17T00:23:33.976Z,274.1
2018-12-17T00:24:34.686Z,291.4
2018-12-17T00:25:35.396Z,238.6
2018-12-17T00:26:36.116Z,244.0
2018-12-17T00:27:36.818Z,268.9
2018-12-17T00:28:37.535Z,280.8
2018-12-17T00:29:38.239Z,337.7
2018-12-17T00:30:38.956Z,260.9
2018-12-17T00:31:39.675Z,224.4
2018-12-17T00:32:40.403Z,287.0
2018-12-17T00:33:41.123Z,236.9
2018-12-17T00:34:41.841Z,258.9
2018-12-17T00:35:42.559Z,233.1
2018-12-17T00:36:43.259Z,236.8
2018-12-17T00:37:43.986Z,294.9
2018-12-17T00:38:44.695Z,404.3
2018-12-17T00:39:45.403Z,287.6
2018-12-17T00:40:46.120Z,292.3
2018-12-17T00:41:46.833Z,250.2
2018-12-17T00:42:47.534Z,249.6
2018-12-17T00:43:48.245Z,231.6
2018-12-17T00:44:48.962Z,236.1
2018-12-17T00:45:49.680Z,246.8
2018-12-17T00:46:50.397Z,232.4
2018-12-17T00:47:51.115Z,182.6
2018-12-17T00:48:51.829Z,190.4
2018-12-17T00:49:52.543Z,183.6
2018-12-17T00:50:53.257Z,194.4
2018-12-17T00:51:54.320Z,186.5
2018-12-17T00:52:55.028Z,183.1
2018-12-17T00:53:55.738Z,190.8
2018-12-17T00:54:56.451Z,191.7
2018-12-17T00:55:57.159Z,192.4
2018-12-17T00:56:57.862Z,176.4
2018-12-17T00:57:58.579Z,180.9
2018-12-17T00:58:59.286Z,179.9
2018-12-17T01:00:00.007Z,182.6
2018-12-17T01:01:00.820Z,179.0
2018-12-17T01:02:01.541Z,194.3
2018-12-17T01:03:02.246Z,175.8
2018-12-17T01:04:02.950Z,181.0
2018-12-17T01:05:03.675Z,192.7
2018-12-17T01:06:04.384Z,192.7
2018-12-17T01:07:05.354Z,181.8
2018-12-17T01:08:06.056Z,199.1
2018-12-17T01:09:06.762Z,210.7
2018-12-17T01:10:07.469Z,246.9
2018-12-17T01:11:08.182Z,278.4
2018-12-17T01:12:08.894Z,239.9
2018-12-17T01:13:09.604Z,216.1
2018-12-17T01:14:10.326Z,251.9
2018-12-17T01:15:11.038Z,237.4
2018-12-17T01:16:11.745Z,252.8
2018-12-17T01:17:12.462Z,249.0
2018-12-17T01:18:13.169Z,227.5
2018-12-17T01:19:13.988Z,210.2
2018-12-17T01:20:14.712Z,219.0
2018-12-17T01:21:15.452Z,210.3
2018-12-17T01:22:17.076Z,205.5
2018-12-17T01:23:17.979Z,213.3
2018-12-17T01:24:18.659Z,194.8
2018-12-17T01:25:19.374Z,194.8
2018-12-17T01:26:20.088Z,193.0
2018-12-17T01:27:20.855Z,185.3
2018-12-17T01:28:22.307Z,201.4
2018-12-17T01:29:22.922Z,206.7
2018-12-17T01:30:23.647Z,182.7
2018-12-17T01:31:24.352Z,206.4
2018-12-17T01:32:25.081Z,199.1
2018-12-17T01:33:25.792Z,189.3
2018-12-17T01:34:26.505Z,206.2
2018-12-17T01:35:27.210Z,206.3
2018-12-17T01:36:27.941Z,190.1
2018-12-17T01:37:28.662Z,203.0
2018-12-17T01:38:29.861Z,196.8
2018-12-17T01:39:30.558Z,218.2
2018-12-17T01:40:31.267Z,193.5
2018-12-17T01:41:31.985Z,194.0
2018-12-17T01:42:32.691Z,196.3
2018-12-17T01:43:33.410Z,188.3
2018-12-17T01:44:34.129Z,194.9
2018-12-17T01:45:34.833Z,208.4
2018-12-17T01:46:35.561Z,200.5
2018-12-17T01:47:37.280Z,183.6
2018-12-17T01:48:38.075Z,194.2
2018-12-17T01:49:38.783Z,190.6
2018-12-17T01:50:39.493Z,179.5
2018-12-17T01:51:40.197Z,186.6
2018-12-17T01:52:40.905Z,185.5
2018-12-17T01:53:41.624Z,191.5
2018-12-17T01:54:42.334Z,196.2
2018-12-17T01:55:43.377Z,188.7
2018-12-17T01:56:44.192Z,178.4
2018-12-17T01:57:44.921Z,176.9
2018-12-17T01:58:45.639Z,171.0
2018-12-17T01:59:46.349Z,176.9
2018-12-17T02:00:47.085Z,178.2
2018-12-17T02:01:47.822Z,165.2
2018-12-17T02:02:48.565Z,168.6
2018-12-17T02:03:49.278Z,167.2
2018-12-17T02:04:50.001Z,162.6
2018-12-17T02:05:50.714Z,171.0
2018-12-17T02:06:51.423Z,153.1
2018-12-17T02:07:52.131Z,154.5
2018-12-17T02:08:52.836Z,162.0
2018-12-17T02:09:53.554Z,153.0
2018-12-17T02:10:54.266Z,151.2
2018-12-17T02:11:54.990Z,152.6
2018-12-17T02:12:55.705Z,148.3
2018-12-17T02:13:56.412Z,150.5
2018-12-17T02:14:57.406Z,148.1
2018-12-17T02:15:58.113Z,144.0
2018-12-17T02:16:58.834Z,138.3
2018-12-17T02:17:59.547Z,129.1
2018-12-17T02:19:00.252Z,144.1
2018-12-17T02:20:01.111Z,147.4
2018-12-17T02:21:02.062Z,146.6
2018-12-17T02:22:02.784Z,138.0
2018-12-17T02:23:03.497Z,139.5
2018-12-17T02:24:04.210Z,138.4
2018-12-17T02:25:04.923Z,168.1
2018-12-17T02:26:05.633Z,130.1
2018-12-17T02:27:06.341Z,148.2
2018-12-17T02:28:07.050Z,132.5
2018-12-17T02:29:07.794Z,138.0
2018-12-17T02:30:08.510Z,138.6
2018-12-17T02:31:09.214Z,143.2
2018-12-17T02:32:09.926Z,140.3
2018-12-17T02:33:10.639Z,126.5
2018-12-17T02:34:11.340Z,127.4
2018-12-17T02:35:12.057Z,129.1
2018-12-17T02:36:12.770Z,130.9
2018-12-17T02:37:13.495Z,123.4
2018-12-17T02:38:14.201Z,127.6
2018-12-17T02:39:14.913Z,121.9
2018-12-17T02:40:15.615Z,116.4
2018-12-17T02:41:16.328Z,121.8
2018-12-17T02:42:17.043Z,128.9
2018-12-17T02:43:17.764Z,114.1
2018-12-17T02:44:18.469Z,118.6
2018-12-17T02:45:19.177Z,122.7
2018-12-17T02:46:19.888Z,115.3
2018-12-17T02:47:20.604Z,114.2
2018-12-17T02:48:21.310Z,111.7
2018-12-17T02:49:22.019Z,107.9
2018-12-17T02:50:22.734Z,103.1
2018-12-17T02:51:23.429Z,101.4
2018-12-17T02:52:24.133Z,98.0
2018-12-17T02:53:24.844Z,95.2
2018-12-17T02:54:25.570Z,98.9
2018-12-17T02:55:26.273Z,110.3
2018-12-17T02:56:27.006Z,106.8
2018-12-17T02:57:27.755Z,114.8
2018-12-17T02:58:28.471Z,104.8
2018-12-17T02:59:29.176Z,104.7
2018-12-17T03:00:29.880Z,107.1
2018-12-17T03:01:30.603Z,119.7
2018-12-17T03:02:31.321Z,110.5
2018-12-17T03:03:32.031Z,106.4
2018-12-17T03:04:32.736Z,106.5
2018-12-17T03:05:33.452Z,111.3
2018-12-17T03:06:34.156Z,105.7
2018-12-17T03:07:34.869Z,107.4
2018-12-17T03:08:35.588Z,104.1
2018-12-17T03:09:36.354Z,116.3
2018-12-17T03:10:37.060Z,108.7
2018-12-17T03:11:37.760Z,106.4
2018-12-17T03:12:38.472Z,102.6
2018-12-17T03:13:39.182Z,118.6
2018-12-17T03:14:39.888Z,118.1
2018-12-17T03:15:40.607Z,116.1
2018-12-17T03:16:41.323Z,121.6
2018-12-17T03:17:42.054Z,114.6
2018-12-17T03:18:42.753Z,116.2
2018-12-17T03:19:43.520Z,118.7
2018-12-17T03:20:44.227Z,113.6
2018-12-17T03:21:44.943Z,104.0
2018-12-17T03:22:45.665Z,112.2
2018-12-17T03:23:46.369Z,115.7
2018-12-17T03:24:47.076Z,127.6
2018-12-17T03:25:47.884Z,112.3
2018-12-17T03:26:48.591Z,126.5
2018-12-17T03:27:49.306Z,103.2
2018-12-17T03:28:51.898Z,108.6
2018-12-17T03:29:50.726Z,118.5
2018-12-17T03:30:51.437Z,125.3
2018-12-17T03:31:52.270Z,105.9
2018-12-17T03:32:52.994Z,104.9
2018-12-17T03:33:53.702Z,113.2
2018-12-17T03:34:54.424Z,121.3
2018-12-17T03:35:55.133Z,120.5
2018-12-17T03:36:55.908Z,107.1
2018-12-17T03:37:56.623Z,113.9
2018-12-17T03:38:57.332Z,126.7
2018-12-17T03:39:58.046Z,116.1
2018-12-17T03:40:58.756Z,122.3
2018-12-17T03:41:59.474Z,119.9
2018-12-17T03:43:00.179Z,109.1
2018-12-17T03:44:00.888Z,146.2
2018-12-17T03:45:01.605Z,114.3
2018-12-17T03:46:02.315Z,117.6
2018-12-17T03:47:03.026Z,113.2
2018-12-17T03:48:03.725Z,115.7
2018-12-17T03:49:04.451Z,123.1
2018-12-17T03:50:05.147Z,98.4
2018-12-17T03:51:05.851Z,97.3
2018-12-17T03:52:06.567Z,110.5
2018-12-17T03:53:07.274Z,112.6
2018-12-17T03:54:08.234Z,112.3
2018-12-17T03:55:08.937Z,102.4
2018-12-17T03:56:09.646Z,100.3
2018-12-17T03:57:10.352Z,90.4
2018-12-17T03:58:11.418Z,94.4
2018-12-17T03:59:12.124Z,85.9
2018-12-17T04:00:12.822Z,84.1
2018-12-17T04:01:13.548Z,81.2
2018-12-17T04:02:14.242Z,93.9
2018-12-17T04:03:14.953Z,79.3
2018-12-17T04:04:15.664Z,76.7
2018-12-17T04:05:16.374Z,74.9
2018-12-17T04:06:17.333Z,76.4
2018-12-17T04:07:18.035Z,76.7
2018-12-17T04:08:18.747Z,73.0
2018-12-17T04:09:19.465Z,76.1
2018-12-17T04:10:20.172Z,69.3
2018-12-17T04:11:20.904Z,69.5
2018-12-17T04:12:21.868Z,74.6
2018-12-17T04:13:22.568Z,68.5
2018-12-17T04:14:23.274Z,67.9
2018-12-17T04:15:23.985Z,62.0
2018-12-17T04:16:24.689Z,70.5
2018-12-17T04:17:25.398Z,67.5
2018-12-17T04:18:26.131Z,69.6
2018-12-17T04:19:26.836Z,66.5
2018-12-17T04:20:27.542Z,67.2
2018-12-17T04:21:28.251Z,62.9
2018-12-17T04:22:28.961Z,63.7
2018-12-17T04:23:29.662Z,64.0
2018-12-17T04:24:30.372Z,72.7
2018-12-17T04:25:31.076Z,68.2
2018-12-17T04:26:31.786Z,62.9
2018-12-17T04:27:32.514Z,66.7
2018-12-17T04:28:33.227Z,71.5
2018-12-17T04:29:33.931Z,66.3
2018-12-17T04:30:34.682Z,59.5
2018-12-17T04:31:35.485Z,60.5
2018-12-17T04:32:36.198Z,60.0
2018-12-17T04:33:36.911Z,55.1
2018-12-17T04:34:37.612Z,51.8
2018-12-17T04:35:38.316Z,51.7
2018-12-17T04:36:39.129Z,58.1
2018-12-17T04:37:40.084Z,55.2
2018-12-17T04:38:41.040Z,54.5
2018-12-17T04:39:41.746Z,50.6
2018-12-17T04:40:42.444Z,45.6
2018-12-17T04:41:43.161Z,46.8
2018-12-17T04:42:43.876Z,46.4
2018-12-17T04:43:44.593Z,50.5
2018-12-17T04:44:45.296Z,44.8
2018-12-17T04:45:46.249Z,44.3
2018-12-17T04:46:46.964Z,49.7
2018-12-17T04:47:47.674Z,45.1
2018-12-17T04:48:48.379Z,44.7
2018-12-17T04:49:49.082Z,45.6
2018-12-17T04:50:49.791Z,50.3
2018-12-17T04:51:50.504Z,48.5
2018-12-17T04:52:51.450Z,42.8
2018-12-17T04:53:52.155Z,45.4
2018-12-17T04:54:52.861Z,48.4
2018-12-17T04:55:53.572Z,52.7
2018-12-17T04:56:54.274Z,44.9
2018-12-17T04:57:54.984Z,39.9
2018-12-17T04:58:55.695Z,40.7
2018-12-17T04:59:56.408Z,45.5
2018-12-17T05:00:57.115Z,42.7
2018-12-17T05:01:57.836Z,38.0
2018-12-17T05:02:58.536Z,43.0
2018-12-17T05:03:59.254Z,37.7
2018-12-17T05:05:00.008Z,36.6
2018-12-17T05:06:00.715Z,39.0
2018-12-17T05:07:01.426Z,40.2
2018-12-17T05:08:02.389Z,35.3
2018-12-17T05:09:03.603Z,43.8
2018-12-17T05:10:04.306Z,39.5
2018-12-17T05:11:05.019Z,42.7
2018-12-17T05:12:05.714Z,42.6
2018-12-17T05:13:06.421Z,44.8
2018-12-17T05:14:07.137Z,48.2
2018-12-17T05:15:07.846Z,51.1
2018-12-17T05:16:08.574Z,41.8
2018-12-17T05:17:09.284Z,41.1
2018-12-17T05:18:09.992Z,47.4
2018-12-17T05:19:10.717Z,43.1
2018-12-17T05:20:11.439Z,45.0
2018-12-17T05:21:12.158Z,42.9
2018-12-17T05:22:12.858Z,48.5
2018-12-17T05:23:13.555Z,44.6
2018-12-17T05:24:14.269Z,49.8
2018-12-17T05:25:14.977Z,52.5
2018-12-17T05:26:15.687Z,55.1
2018-12-17T05:27:16.390Z,47.2
2018-12-17T05:28:17.100Z,52.0
2018-12-17T05:29:21.501Z,53.6
2018-12-17T05:30:18.773Z,51.0
2018-12-17T05:31:19.497Z,50.2
2018-12-17T05:32:20.195Z,50.9
2018-12-17T05:33:20.916Z,55.7
2018-12-17T05:34:21.619Z,52.6
2018-12-17T05:35:22.331Z,49.2
2018-12-17T05:36:23.036Z,56.5
2018-12-17T05:37:23.900Z,53.1
2018-12-17T05:38:24.617Z,61.1
2018-12-17T05:39:25.318Z,68.5
2018-12-17T05:40:26.031Z,63.0
2018-12-17T05:41:26.751Z,56.2
2018-12-17T05:42:27.555Z,69.9
2018-12-17T05:43:28.255Z,64.0
2018-12-17T05:44:28.978Z,63.2
2018-12-17T05:45:29.687Z,65.1
2018-12-17T05:46:30.391Z,64.9
2018-12-17T05:47:31.203Z,61.2
2018-12-17T05:48:31.914Z,68.3
2018-12-17T05:49:32.631Z,59.8
2018-12-17T05:50:33.331Z,66.1
2018-12-17T05:51:34.043Z,64.6
2018-12-17T05:52:34.748Z,66.7
2018-12-17T05:53:35.469Z,68.9
2018-12-17T05:54:36.214Z,65.8
2018-12-17T05:55:36.920Z,70.5
2018-12-17T05:56:37.626Z,61.9
2018-12-17T05:57:38.332Z,69.3
2018-12-17T05:58:39.042Z,66.1
2018-12-17T05:59:39.765Z,66.5
2018-12-17T06:00:40.485Z,63.2
2018-12-17T06:01:41.188Z,65.3
2018-12-17T06:02:41.897Z,62.2
2018-12-17T06:03:42.628Z,67.2
2018-12-17T06:04:43.347Z,72.4
2018-12-17T06:05:44.059Z,71.8
2018-12-17T06:06:44.766Z,73.1
2018-12-17T06:07:45.480Z,65.1
2018-12-17T06:08:46.188Z,62.5
2018-12-17T06:09:46.903Z,68.9
2018-12-17T06:10:47.616Z,67.3
2018-12-17T06:11:48.324Z,69.7
2018-12-17T06:12:49.279Z,69.0
2018-12-17T06:13:49.993Z,66.6
2018-12-17T06:14:50.714Z,70.9
2018-12-17T06:15:51.411Z,60.6
2018-12-17T06:16:52.129Z,64.1
2018-12-17T06:17:52.834Z,68.0
2018-12-17T06:18:53.540Z,70.8
2018-12-17T06:19:54.246Z,67.4
2018-12-17T06:20:54.963Z,78.4
2018-12-17T06:21:55.672Z,65.7
2018-12-17T06:22:56.379Z,71.9
2018-12-17T06:23:57.086Z,67.7
2018-12-17T06:24:58.053Z,68.7
2018-12-17T06:25:58.754Z,63.6
2018-12-17T06:26:59.459Z,64.3
2018-12-17T06:28:00.167Z,64.9
2018-12-17T06:29:01.474Z,61.4
2018-12-17T06:30:02.179Z,54.3
2018-12-17T06:31:02.871Z,46.8
2018-12-17T06:32:03.582Z,52.7
2018-12-17T06:33:05.830Z,54.5
2018-12-17T06:34:05.019Z,54.1
2018-12-17T06:35:05.725Z,57.6
2018-12-17T06:36:06.674Z,45.2
2018-12-17T06:37:07.385Z,46.6
2018-12-17T06:38:08.101Z,44.0
2018-12-17T06:39:08.805Z,41.7
2018-12-17T06:40:10.357Z,44.5
2018-12-17T06:41:10.235Z,43.0
2018-12-17T06:42:11.192Z,41.9
2018-12-17T06:43:11.905Z,39.1
2018-12-17T06:44:12.654Z,43.3
2018-12-17T06:45:13.361Z,45.7
2018-12-17T06:46:14.084Z,44.2
2018-12-17T06:47:14.782Z,42.9
2018-12-17T06:48:17.316Z,41.0
2018-12-17T06:49:16.292Z,36.6
2018-12-17T06:50:17.027Z,33.9
2018-12-17T06:51:17.749Z,38.9
2018-12-17T06:52:18.455Z,37.6
2018-12-17T06:53:19.174Z,41.1
2018-12-17T06:54:19.978Z,37.3
2018-12-17T06:55:20.701Z,43.9
2018-12-17T06:56:21.415Z,41.5
2018-12-17T06:57:22.124Z,48.2
2018-12-17T06:58:22.834Z,45.1
2018-12-17T06:59:23.537Z,51.8
2018-12-17T07:00:24.410Z,51.4
2018-12-17T07:01:25.148Z,48.8
2018-12-17T07:02:25.853Z,55.5
2018-12-17T07:03:26.572Z,61.1
2018-12-17T07:04:27.496Z,59.8
2018-12-17T07:05:28.574Z,65.0
2018-12-17T07:06:29.283Z,62.0
2018-12-17T07:07:29.995Z,62.1
2018-12-17T07:08:30.710Z,60.2
2018-12-17T07:09:31.565Z,62.9
2018-12-17T07:10:32.284Z,69.2
2018-12-17T07:11:32.998Z,66.0
2018-12-17T07:12:33.704Z,64.3
2018-12-17T07:13:34.408Z,68.4
2018-12-17T07:14:36.561Z,66.0
2018-12-17T07:15:35.822Z,69.4
2018-12-17T07:16:36.541Z,65.8
2018-12-17T07:17:37.246Z,72.5
2018-12-17T07:18:37.962Z,75.9
2018-12-17T07:19:38.675Z,74.2
2018-12-17T07:20:39.387Z,73.9
2018-12-17T07:21:40.213Z,67.2
2018-12-17T07:22:40.921Z,75.6
2018-12-17T07:23:41.651Z,65.5
2018-12-17T07:24:42.365Z,75.3
2018-12-17T07:25:43.087Z,68.5
2018-12-17T07:26:43.900Z,74.8
2018-12-17T07:27:45.057Z,72.6
2018-12-17T07:28:45.840Z,76.8
2018-12-17T07:29:49.958Z,77.2
2018-12-17T07:30:48.987Z,80.0
2018-12-17T07:31:50.132Z,75.9
2018-12-17T07:32:51.324Z,74.8
2018-12-17T07:33:52.120Z,83.2
2018-12-17T07:34:52.821Z,69.7
2018-12-17T07:35:53.536Z,85.8
2018-12-17T07:36:54.401Z,79.0
2018-12-17T07:37:55.120Z,81.3
2018-12-17T07:38:55.827Z,83.2
2018-12-17T07:39:56.562Z,101.7
2018-12-17T07:40:57.272Z,85.9
2018-12-17T07:41:58.238Z,91.5
2018-12-17T07:42:58.957Z,84.3
2018-12-17T07:43:59.669Z,79.2
2018-12-17T07:45:00.374Z,88.1
2018-12-17T07:46:01.099Z,95.4
2018-12-17T07:47:01.819Z,100.6
2018-12-17T07:48:02.538Z,92.0
2018-12-17T07:49:03.269Z,91.6
2018-12-17T07:50:03.979Z,97.1
2018-12-17T07:51:04.697Z,91.7
2018-12-17T07:52:05.408Z,97.0
2018-12-17T07:53:06.175Z,92.2
2018-12-17T07:54:06.984Z,95.0
2018-12-17T07:55:07.689Z,90.9
2018-12-17T07:56:08.400Z,95.4
2018-12-17T07:57:09.117Z,95.3
2018-12-17T07:58:09.840Z,99.1
2018-12-17T07:59:10.600Z,96.7
2018-12-17T08:00:11.319Z,99.0
2018-12-17T08:01:12.045Z,102.9
2018-12-17T08:02:12.758Z,114.9
2018-12-17T08:03:13.475Z,110.8
2018-12-17T08:04:14.183Z,104.2
2018-12-17T08:05:15.029Z,119.1
2018-12-17T08:06:15.671Z,96.1
2018-12-17T08:07:16.383Z,104.5
2018-12-17T08:08:17.101Z,121.4
2018-12-17T08:09:17.820Z,112.6
2018-12-17T08:10:18.626Z,105.1
2018-12-17T08:11:19.335Z,112.1
2018-12-17T08:12:20.050Z,107.8
2018-12-17T08:13:20.805Z,110.8
2018-12-17T08:14:21.528Z,103.9
2018-12-17T08:15:22.234Z,93.6
2018-12-17T08:16:22.955Z,114.7
2018-12-17T08:17:23.684Z,120.1
2018-12-17T08:18:24.391Z,125.8
2018-12-17T08:19:25.111Z,132.3
2018-12-17T08:20:25.818Z,121.2
2018-12-17T08:21:26.894Z,117.3
2018-12-17T08:22:27.624Z,119.8
2018-12-17T08:23:28.341Z,116.6
2018-12-17T08:24:29.062Z,134.8
2018-12-17T08:25:29.780Z,126.1
2018-12-17T08:26:30.491Z,123.1
2018-12-17T08:27:31.209Z,113.3
2018-12-17T08:28:31.917Z,126.9
2018-12-17T08:29:32.631Z,123.3
2018-12-17T08:30:33.347Z,114.9
2018-12-17T08:31:34.083Z,111.3
2018-12-17T08:32:34.797Z,125.1
2018-12-17T08:33:35.514Z,123.4
2018-12-17T08:34:36.234Z,132.7
2018-12-17T08:35:36.948Z,113.1
2018-12-17T08:36:37.664Z,106.0
2018-12-17T08:37:38.391Z,118.2
2018-12-17T08:38:39.116Z,115.2
2018-12-17T08:39:39.791Z,112.7
2018-12-17T08:40:40.961Z,110.7
2018-12-17T08:41:41.694Z,114.2
2018-12-17T08:42:42.427Z,113.4
2018-12-17T08:43:43.141Z,99.5
2018-12-17T08:44:43.851Z,105.5
2018-12-17T08:45:44.567Z,108.6
2018-12-17T08:46:45.275Z,98.6
2018-12-17T08:47:45.989Z,93.0
2018-12-17T08:48:46.699Z,99.9
2018-12-17T08:49:47.659Z,98.3
2018-12-17T08:50:48.381Z,106.4
2018-12-17T08:51:49.106Z,87.9
2018-12-17T08:52:49.815Z,98.8
2018-12-17T08:53:50.836Z,93.6
2018-12-17T08:54:51.675Z,81.9
2018-12-17T08:55:52.384Z,86.9
2018-12-17T08:56:53.098Z,78.7
2018-12-17T08:57:53.823Z,77.3
2018-12-17T08:58:54.538Z,71.2
2018-12-17T08:59:55.239Z,88.9
2018-12-17T09:00:55.963Z,83.3
2018-12-17T09:01:56.685Z,60.5
2018-12-17T09:02:57.394Z,70.6
2018-12-17T09:03:58.116Z,65.4
2018-12-17T09:04:58.829Z,70.1
2018-12-17T09:06:00.631Z,57.1
2018-12-17T09:07:00.308Z,56.7
2018-12-17T09:08:01.025Z,55.3
2018-12-17T09:09:01.739Z,50.6
2018-12-17T09:10:02.456Z,55.3
2018-12-17T09:11:03.207Z,48.1
2018-12-17T09:12:03.914Z,51.3
2018-12-17T09:13:04.628Z,48.2
2018-12-17T09:14:05.342Z,48.1
2018-12-17T09:15:06.057Z,42.9
2018-12-17T09:16:06.768Z,43.1
2018-12-17T09:17:07.489Z,37.2
2018-12-17T09:18:08.200Z,36.3
2018-12-17T09:19:08.914Z,31.3
2018-12-17T09:20:09.624Z,37.4
2018-12-17T09:21:10.329Z,31.1
2018-12-17T09:22:11.057Z,30.3
2018-12-17T09:23:11.789Z,32.1
2018-12-17T09:24:12.510Z,27.9
2018-12-17T09:25:13.232Z,27.4
2018-12-17T09:26:13.943Z,28.8
2018-12-17T09:27:14.649Z,26.8
2018-12-17T09:28:15.366Z,27.1
2018-12-17T09:29:16.078Z,25.8
2018-12-17T09:30:18.451Z,26.9
2018-12-17T09:31:17.514Z,23.4
2018-12-17T09:32:18.225Z,23.9
2018-12-17T09:33:18.941Z,20.9
2018-12-17T09:34:19.801Z,23.4
2018-12-17T09:35:20.532Z,23.9
2018-12-17T09:36:21.243Z,17.6
2018-12-17T09:37:22.222Z,15.8
2018-12-17T09:38:22.926Z,15.3
2018-12-17T09:39:23.746Z,18.5
2018-12-17T09:40:24.463Z,16.2
2018-12-17T09:41:25.171Z,17.1
2018-12-17T09:42:25.879Z,16.4
2018-12-17T09:43:26.604Z,12.2
2018-12-17T09:44:27.665Z,16.5
2018-12-17T09:45:28.389Z,12.7
2018-12-17T09:46:29.111Z,16.8
2018-12-17T09:47:29.825Z,14.0
2018-12-17T09:48:30.550Z,12.2
2018-12-17T09:49:31.258Z,13.3
2018-12-17T09:50:31.967Z,14.1
2018-12-17T09:51:32.687Z,15.1
2018-12-17T09:52:33.394Z,12.3
2018-12-17T09:53:34.111Z,13.5
2018-12-17T09:54:35.067Z,12.4
2018-12-17T09:55:36.441Z,12.4
2018-12-17T09:56:36.508Z,16.9
2018-12-17T09:57:37.213Z,14.0
2018-12-17T09:58:37.938Z,12.8
2018-12-17T09:59:38.651Z,14.1
2018-12-17T10:00:39.374Z,15.2
2018-12-17T10:01:40.205Z,11.9
2018-12-17T10:02:40.918Z,14.4
2018-12-17T10:03:41.931Z,15.0
2018-12-17T10:04:42.351Z,11.7
2018-12-17T10:05:43.064Z,14.0
2018-12-17T10:06:43.785Z,11.5
2018-12-17T10:07:44.515Z,13.8
2018-12-17T10:08:45.228Z,12.8
2018-12-17T10:09:45.935Z,11.9
2018-12-17T10:10:46.645Z,10.8
2018-12-17T10:11:47.358Z,9.8
2018-12-17T10:12:48.072Z,9.4
2018-12-17T10:13:48.781Z,9.2
2018-12-17T10:14:49.498Z,9.6
2018-12-17T10:15:50.205Z,10.1
2018-12-17T10:16:50.923Z,10.3
2018-12-17T10:17:51.631Z,8.6
2018-12-17T10:18:52.340Z,8.1
2018-12-17T10:19:53.059Z,10.1
2018-12-17T10:20:53.767Z,9.6
2018-12-17T10:21:54.480Z,9.6
2018-12-17T10:22:55.187Z,8.7
2018-12-17T10:23:55.890Z,9.6
2018-12-17T10:24:56.605Z,8.3
2018-12-17T10:25:57.572Z,9.2
2018-12-17T10:26:58.295Z,10.5
2018-12-17T10:27:59.002Z,10.6
2018-12-17T10:28:59.722Z,8.9
2018-12-17T10:30:00.434Z,9.0
2018-12-17T10:31:01.196Z,8.4
2018-12-17T10:32:01.904Z,7.6
2018-12-17T10:33:02.613Z,12.3
2018-12-17T10:34:03.362Z,9.1
2018-12-17T10:35:04.076Z,8.9
2018-12-17T10:36:04.792Z,8.9
2018-12-17T10:37:05.522Z,8.3
2018-12-17T10:38:06.234Z,9.2
2018-12-17T10:39:06.971Z,8.8
2018-12-17T10:40:07.690Z,9.0
2018-12-17T10:41:08.459Z,8.4
2018-12-17T10:42:09.166Z,9.0
2018-12-17T10:43:09.877Z,11.0
2018-12-17T10:44:10.599Z,8.7
2018-12-17T10:45:11.311Z,7.9
2018-12-17T10:46:12.074Z,8.5
2018-12-17T10:47:12.787Z,8.9
2018-12-17T10:48:13.514Z,8.9
2018-12-17T10:49:14.228Z,8.8
2018-12-17T10:50:14.950Z,7.9
2018-12-17T10:51:15.671Z,7.3
2018-12-17T10:52:16.380Z,7.2
2018-12-17T10:53:17.477Z,7.2
2018-12-17T10:54:18.185Z,9.5
2018-12-17T10:55:18.902Z,8.4
2018-12-17T10:56:19.635Z,8.2
2018-12-17T10:57:20.344Z,10.3
2018-12-17T10:58:21.199Z,8.1
2018-12-17T10:59:21.907Z,8.8
2018-12-17T11:00:22.620Z,15.6
2018-12-17T11:01:23.346Z,8.3
2018-12-17T11:02:24.058Z,8.6
2018-12-17T11:03:24.772Z,8.3
2018-12-17T11:04:25.498Z,9.5
2018-12-17T11:05:26.207Z,8.7
2018-12-17T11:06:26.930Z,10.0
2018-12-17T11:07:27.653Z,10.0
2018-12-17T11:08:28.377Z,13.1
2018-12-17T11:09:29.080Z,8.6
2018-12-17T11:10:29.789Z,7.7
2018-12-17T11:11:30.516Z,8.3
2018-12-17T11:12:31.235Z,7.9
2018-12-17T11:13:31.946Z,7.8
2018-12-17T11:14:32.668Z,8.0
2018-12-17T11:15:33.369Z,9.6
2018-12-17T11:16:34.093Z,8.7
2018-12-17T11:17:34.797Z,8.8
2018-12-17T11:18:35.512Z,7.6
2018-12-17T11:19:36.230Z,7.9
2018-12-17T11:20:36.944Z,8.2
2018-12-17T11:21:37.714Z,8.0
2018-12-17T11:22:38.428Z,8.7
2018-12-17T11:23:39.148Z,8.0
2018-12-17T11:24:39.870Z,9.4
2018-12-17T11:25:40.582Z,8.9
2018-12-17T11:26:41.291Z,8.8
2018-12-17T11:27:42.007Z,8.8
2018-12-17T11:28:42.720Z,9.6
2018-12-17T11:29:43.435Z,10.1
2018-12-17T11:30:46.729Z,9.1
2018-12-17T11:31:44.865Z,8.4
2018-12-17T11:32:45.586Z,9.4
2018-12-17T11:33:46.300Z,10.2
2018-12-17T11:34:47.024Z,8.5
2018-12-17T11:35:47.747Z,9.3
2018-12-17T11:36:48.451Z,8.3
2018-12-17T11:37:49.169Z,9.3
2018-12-17T11:38:49.880Z,8.8
2018-12-17T11:39:50.598Z,9.9
2018-12-17T11:40:51.308Z,9.2
2018-12-17T11:41:52.018Z,8.3
2018-12-17T11:42:52.987Z,9.6
2018-12-17T11:43:53.698Z,9.3
2018-12-17T11:44:54.444Z,8.8
2018-12-17T11:45:55.159Z,9.0
2018-12-17T11:46:55.872Z,10.4
2018-12-17T11:47:56.588Z,8.6
2018-12-17T11:48:57.297Z,9.0
2018-12-17T11:49:58.013Z,8.3
2018-12-17T11:50:58.735Z,9.9
2018-12-17T11:51:59.434Z,10.9
2018-12-17T11:53:00.147Z,9.2
2018-12-17T11:54:00.861Z,9.3
2018-12-17T11:55:01.581Z,8.9
2018-12-17T11:56:02.310Z,10.0
2018-12-17T11:57:03.037Z,9.7
2018-12-17T11:58:03.744Z,9.4
2018-12-17T11:59:04.466Z,10.0
2018-12-17T12:00:05.180Z,8.8
2018-12-17T12:01:05.886Z,9.1
2018-12-17T12:02:06.858Z,9.4
2018-12-17T12:03:07.574Z,9.4
2018-12-17T12:04:08.283Z,8.9
2018-12-17T12:05:09.002Z,11.5
2018-12-17T12:06:13.968Z,8.4
2018-12-17T12:07:10.425Z,8.8
2018-12-17T12:08:11.145Z,9.7
2018-12-17T12:09:11.858Z,9.3
2018-12-17T12:10:12.580Z,10.0
2018-12-17T12:11:13.284Z,8.5
2018-12-17T12:12:14.013Z,12.3
2018-12-17T12:13:14.726Z,9.4
2018-12-17T12:14:15.440Z,11.3
2018-12-17T12:15:16.147Z,9.2
2018-12-17T12:16:16.876Z,10.8
2018-12-17T12:17:17.589Z,9.6
2018-12-17T12:18:18.304Z,10.1
2018-12-17T12:19:19.021Z,9.2
2018-12-17T12:20:19.729Z,8.9
2018-12-17T12:21:20.499Z,10.9
2018-12-17T12:22:21.206Z,11.2
2018-12-17T12:23:21.912Z,8.8
2018-12-17T12:24:22.624Z,11.0
2018-12-17T12:25:23.334Z,10.8
2018-12-17T12:26:24.100Z,9.6
2018-12-17T12:27:24.806Z,10.5
2018-12-17T12:28:25.526Z,11.7
2018-12-17T12:29:26.251Z,11.1
2018-12-17T12:30:27.018Z,12.2
2018-12-17T12:31:27.684Z,13.2
2018-12-17T12:32:28.392Z,10.1
2018-12-17T12:33:29.107Z,11.3
2018-12-17T12:34:29.830Z,11.5
2018-12-17T12:35:30.555Z,11.4
2018-12-17T12:36:31.275Z,12.7
2018-12-17T12:37:31.986Z,12.4
2018-12-17T12:38:32.698Z,12.3
2018-12-17T12:39:33.406Z,11.0
2018-12-17T12:40:34.125Z,11.7
2018-12-17T12:41:34.844Z,14.5
2018-12-17T12:42:35.628Z,13.8
2018-12-17T12:43:36.299Z,17.5
2018-12-17T12:44:37.012Z,11.6
2018-12-17T12:45:37.735Z,9.9
2018-12-17T12:46:38.449Z,10.4
2018-12-17T12:47:39.165Z,10.9
2018-12-17T12:48:40.026Z,9.8
2018-12-17T12:49:40.739Z,10.8
2018-12-17T12:50:41.450Z,14.2
2018-12-17T12:51:42.161Z,9.6
2018-12-17T12:52:42.885Z,9.3
2018-12-17T12:53:43.597Z,10.9
2018-12-17T12:54:44.320Z,9.3
2018-12-17T12:55:45.049Z,9.3
2018-12-17T12:56:45.761Z,10.3
2018-12-17T12:57:46.478Z,8.7
2018-12-17T12:58:47.189Z,8.1
2018-12-17T12:59:47.898Z,9.5
2018-12-17T13:00:48.620Z,9.8
2018-12-17T13:01:49.332Z,9.0
2018-12-17T13:02:50.054Z,9.0
2018-12-17T13:03:50.779Z,8.1
2018-12-17T13:04:51.651Z,8.3
2018-12-17T13:05:52.375Z,8.3
2018-12-17T13:06:53.082Z,8.4
2018-12-17T13:07:53.796Z,8.1
2018-12-17T13:08:54.758Z,7.7
2018-12-17T13:09:55.839Z,8.8
2018-12-17T13:10:56.579Z,8.0
2018-12-17T13:11:57.291Z,10.3
2018-12-17T13:12:57.999Z,9.0
2018-12-17T13:13:58.720Z,8.4
2018-12-17T13:14:59.492Z,8.5
2018-12-17T13:16:00.211Z,8.2
2018-12-17T13:17:00.927Z,8.6
2018-12-17T13:18:01.639Z,8.4
2018-12-17T13:19:02.365Z,8.3
2018-12-17T13:20:03.070Z,8.4
2018-12-17T13:21:03.784Z,7.5
2018-12-17T13:22:04.495Z,7.4
2018-12-17T13:23:05.419Z,7.8